KWMC

Details ICAO KWMC
Name Winnemucca Muni
Region United States
Timezone America/Los_Angeles (UTC-8.0)
Plans Departing 8
Arriving 1
Stats Elevation 4,308 ft / 1,313 m (AMSL)
Location 40.896517° -117.805092°
Runways 2
Magnetic Variation 13.251° E
Sunrise 2017-12-17 15:11:38 UTC / 2017-12-17 07:11:38 Local
Sunset 2017-12-18 00:26:06 UTC / 2017-12-17 16:26:06 Local
Advertisement - Login to hide

Runways

ID Width Length Bearing (true) Bearing (mag) Surface Threshold Offset Overrun Length
02 75 ft / 23 m 4,798 ft / 1,462 m 39.43° 26.18° Asphalt 0 ft / 0 m 0 ft / 0 m
14 98 ft / 30 m 7,005 ft / 2,135 m 159.73° 146.48° Asphalt 0 ft / 0 m 200 ft / 61 m
20 75 ft / 23 m 4,798 ft / 1,462 m 219.44° 206.19° Asphalt 0 ft / 0 m 151 ft / 46 m
32 98 ft / 30 m 7,005 ft / 2,135 m 339.73° 326.48° Asphalt 0 ft / 0 m 200 ft / 61 m

Map

Weather


0- 5 10 15 20 25 30 35+ Temperature / ° C

Clouds and Precipitation
Forecast for 2017-12-18 00:00 UTC. Updated 31 minutes ago

Ground ~20,000 ft ~40,000 ft Winds

METAR

KWMC 172256Z AUTO 00000KT 10SM CLR 03/M07 A3023 RMK AO2 SLP268 T00281067

TAF

KWMC 171723Z 1718/1818 VRB04KT P6SM SCT050 BKN200 FM181200 16005KT P6SM BKN160

Frequencies

Recorded 120.17 MHz ASOS
Unicom 122.80 MHz CTAF/UNICOM
Warning: Do not use this data for real-world aviation or navigation. No guarantee of current accuracy is given.